createdAt,value
2023-02-18T00:00:29.256Z,38.53
2023-02-18T00:02:58.607Z,33.33
2023-02-18T00:05:28.563Z,26.40
2023-02-18T00:07:55.311Z,23.17
2023-02-18T00:10:21.999Z,29.57
2023-02-18T00:12:48.707Z,25.97
2023-02-18T00:15:15.504Z,29.63
2023-02-18T00:17:42.226Z,22.20
2023-02-18T00:20:09.358Z,26.47
2023-02-18T00:22:36.053Z,24.30
2023-02-18T00:25:02.755Z,25.40
2023-02-18T00:27:29.488Z,39.95
2023-02-18T00:29:56.316Z,36.00
2023-02-18T00:32:23.094Z,30.30
2023-02-18T00:34:49.866Z,28.30
2023-02-18T00:37:16.662Z,32.20
2023-02-18T00:39:44.281Z,30.60
2023-02-18T00:42:11.077Z,34.08
2023-02-18T00:44:37.804Z,35.33
2023-02-18T00:47:04.546Z,30.20
2023-02-18T00:49:31.629Z,28.37
2023-02-18T00:51:58.474Z,38.27
2023-02-18T00:54:25.200Z,27.70
2023-02-18T00:56:51.886Z,32.93
2023-02-18T00:59:18.566Z,32.43
2023-02-18T01:01:45.373Z,22.07
2023-02-18T01:04:12.457Z,34.33
2023-02-18T01:06:39.559Z,28.40
2023-02-18T01:09:06.507Z,31.60
2023-02-18T01:11:33.321Z,34.35
2023-02-18T01:14:00.058Z,27.63
2023-02-18T01:16:27.146Z,24.50
2023-02-18T01:18:53.983Z,22.10
2023-02-18T01:21:21.138Z,21.17
2023-02-18T01:23:47.865Z,28.83
2023-02-18T01:26:15.625Z,26.40
2023-02-18T01:28:42.348Z,26.80
2023-02-18T01:31:12.541Z,22.10
2023-02-18T01:33:39.584Z,28.13
2023-02-18T01:36:07.445Z,32.17
2023-02-18T01:38:34.414Z,21.43
2023-02-18T01:41:01.192Z,23.53
2023-02-18T01:43:28.004Z,28.53
2023-02-18T01:45:58.006Z,23.50
2023-02-18T01:48:39.668Z,30.67
2023-02-18T01:51:15.018Z,27.07
2023-02-18T01:53:52.967Z,30.43
2023-02-18T01:56:27.929Z,23.23
2023-02-18T01:58:56.996Z,26.70
2023-02-18T02:01:25.608Z,28.67
2023-02-18T02:03:52.528Z,29.03
2023-02-18T02:06:22.826Z,24.07
2023-02-18T02:08:51.869Z,20.33
2023-02-18T02:11:31.252Z,29.20
2023-02-18T02:14:22.182Z,20.70
2023-02-18T02:17:10.524Z,23.90
2023-02-18T02:20:11.886Z,25.73
2023-02-18T02:23:15.688Z,25.67
2023-02-18T02:26:19.560Z,24.13
2023-02-18T02:29:24.547Z,28.47
2023-02-18T02:32:29.878Z,32.20
2023-02-18T02:35:07.703Z,25.30
2023-02-18T02:37:34.324Z,23.50
2023-02-18T02:40:15.659Z,26.30
2023-02-18T02:43:05.552Z,30.20
2023-02-18T02:45:44.477Z,20.67
2023-02-18T02:48:49.140Z,17.70
2023-02-18T02:51:18.478Z,35.40
2023-02-18T02:53:45.249Z,28.97
2023-02-18T02:56:18.730Z,30.43
2023-02-18T02:58:47.964Z,28.93
2023-02-18T03:01:35.534Z,25.10
2023-02-18T03:04:13.994Z,22.57
2023-02-18T03:07:03.506Z,22.27
2023-02-18T03:09:48.468Z,25.70
2023-02-18T03:12:23.234Z,34.87
2023-02-18T03:15:11.152Z,27.93
2023-02-18T03:17:46.251Z,34.80
2023-02-18T03:20:26.597Z,26.33
2023-02-18T03:22:56.076Z,27.93
2023-02-18T03:25:24.361Z,28.63
2023-02-18T03:27:56.127Z,29.97
2023-02-18T03:30:27.368Z,27.97
2023-02-18T03:33:00.374Z,31.30
2023-02-18T03:35:27.947Z,28.90
2023-02-18T03:38:12.426Z,31.03
2023-02-18T03:40:39.269Z,24.13
2023-02-18T03:43:05.987Z,24.00
2023-02-18T03:45:32.652Z,26.23
2023-02-18T03:47:59.322Z,28.40
2023-02-18T03:50:26.061Z,32.47
2023-02-18T03:52:52.806Z,31.70
2023-02-18T03:55:19.534Z,32.27
2023-02-18T03:57:46.219Z,25.07
2023-02-18T04:00:13.513Z,30.47
2023-02-18T04:02:41.254Z,18.80
2023-02-18T04:05:08.920Z,32.20
2023-02-18T04:07:35.828Z,32.77
2023-02-18T04:10:02.592Z,26.73
2023-02-18T04:12:29.385Z,24.63
2023-02-18T04:14:56.099Z,26.83
2023-02-18T04:17:22.908Z,25.83
2023-02-18T04:19:49.597Z,28.30
2023-02-18T04:22:16.294Z,23.63
2023-02-18T04:24:43.099Z,34.53
2023-02-18T04:27:09.826Z,25.70
2023-02-18T04:29:36.603Z,21.33
2023-02-18T04:32:03.525Z,24.03
2023-02-18T04:34:30.203Z,23.83
2023-02-18T04:36:57.466Z,29.53
2023-02-18T04:39:24.739Z,26.50
2023-02-18T04:41:51.399Z,22.73
2023-02-18T04:44:18.032Z,22.17
2023-02-18T04:46:44.768Z,19.87
2023-02-18T04:49:11.454Z,18.60
2023-02-18T04:51:38.122Z,14.63
2023-02-18T04:54:05.111Z,24.63
2023-02-18T04:56:31.822Z,16.10
2023-02-18T04:58:58.476Z,21.03
2023-02-18T05:01:25.219Z,17.50
2023-02-18T05:03:51.929Z,19.07
2023-02-18T05:06:18.685Z,17.60
2023-02-18T05:08:45.403Z,17.77
2023-02-18T05:11:12.099Z,16.73
2023-02-18T05:13:39.329Z,13.70
2023-02-18T05:16:07.819Z,16.10
2023-02-18T05:18:34.967Z,21.10
2023-02-18T05:21:01.734Z,18.57
2023-02-18T05:23:28.556Z,21.67
2023-02-18T05:25:55.805Z,18.87
2023-02-18T05:28:23.134Z,13.37
2023-02-18T05:30:50.089Z,12.77
2023-02-18T05:33:16.848Z,18.37
2023-02-18T05:35:43.501Z,12.30
2023-02-18T05:38:10.218Z,12.13
2023-02-18T05:40:37.569Z,6.10
2023-02-18T05:43:04.704Z,9.93
2023-02-18T05:45:31.762Z,9.80
2023-02-18T05:47:58.476Z,11.97
2023-02-18T05:50:25.198Z,15.17
2023-02-18T05:52:51.978Z,12.10
2023-02-18T05:55:21.953Z,10.37
2023-02-18T05:57:48.704Z,10.23
2023-02-18T06:00:15.838Z,10.37
2023-02-18T06:02:43.031Z,11.00
2023-02-18T06:05:10.456Z,13.60
2023-02-18T06:07:37.322Z,10.03
2023-02-18T06:10:05.629Z,12.33
2023-02-18T06:12:32.491Z,15.60
2023-02-18T06:14:59.198Z,11.50
2023-02-18T06:17:26.027Z,6.63
2023-02-18T06:19:52.817Z,9.20
2023-02-18T06:22:19.566Z,10.60
2023-02-18T06:24:46.385Z,14.17
2023-02-18T06:27:13.128Z,14.07
2023-02-18T06:29:39.841Z,9.73
2023-02-18T06:32:06.619Z,14.00
2023-02-18T06:34:33.533Z,17.03
2023-02-18T06:37:01.395Z,13.57
2023-02-18T06:39:28.253Z,10.05
2023-02-18T06:41:55.021Z,8.57
2023-02-18T06:44:21.792Z,8.93
2023-02-18T06:46:48.569Z,10.30
2023-02-18T06:49:15.310Z,11.60
2023-02-18T06:51:42.071Z,8.57
2023-02-18T06:54:08.799Z,8.57
2023-02-18T06:56:35.437Z,6.80
2023-02-18T06:59:02.147Z,4.00
2023-02-18T07:01:28.853Z,7.63
2023-02-18T07:03:56.079Z,7.33
2023-02-18T07:06:22.747Z,4.23
2023-02-18T07:08:49.589Z,4.40
2023-02-18T07:11:16.748Z,8.43
2023-02-18T07:13:43.382Z,3.60
2023-02-18T07:16:10.604Z,5.03
2023-02-18T07:18:37.580Z,3.73
2023-02-18T07:21:04.431Z,4.30
2023-02-18T07:23:31.174Z,1.97
2023-02-18T07:26:12.865Z,3.13
2023-02-18T07:28:40.215Z,5.87
2023-02-18T07:31:10.749Z,1.30
2023-02-18T07:33:37.574Z,2.40
2023-02-18T07:36:04.737Z,3.00
2023-02-18T07:38:31.751Z,4.53
2023-02-18T07:40:58.809Z,2.43
2023-02-18T07:43:25.643Z,3.80
2023-02-18T07:45:52.472Z,1.30
2023-02-18T07:48:19.257Z,2.60
2023-02-18T07:50:46.583Z,6.63
2023-02-18T07:53:15.172Z,5.33
2023-02-18T07:55:50.723Z,4.27
2023-02-18T07:58:28.274Z,3.20
2023-02-18T08:00:55.610Z,6.90
2023-02-18T08:03:25.503Z,5.80
2023-02-18T08:05:52.944Z,3.47
2023-02-18T08:08:25.253Z,2.67
2023-02-18T08:10:53.867Z,8.70
2023-02-18T08:13:20.581Z,3.20
2023-02-18T08:15:47.566Z,5.07
2023-02-18T08:18:18.863Z,6.00
2023-02-18T08:20:47.275Z,6.57
2023-02-18T08:23:14.910Z,2.53
2023-02-18T08:25:46.284Z,1.53
2023-02-18T08:28:13.320Z,4.37
2023-02-18T08:30:45.106Z,5.30
2023-02-18T08:33:11.885Z,3.93
2023-02-18T08:35:40.600Z,7.33
2023-02-18T08:38:07.336Z,6.93
2023-02-18T08:40:34.321Z,4.47
2023-02-18T08:43:00.989Z,2.50
2023-02-18T08:45:27.731Z,4.90
2023-02-18T08:48:17.902Z,5.07
2023-02-18T08:50:41.253Z,5.83
2023-02-18T08:53:08.091Z,7.17
2023-02-18T08:55:35.339Z,5.10
2023-02-18T08:58:04.229Z,3.77
2023-02-18T09:00:30.882Z,3.13
2023-02-18T09:02:57.571Z,7.13
2023-02-18T09:05:24.295Z,5.17
2023-02-18T09:07:50.971Z,4.37
2023-02-18T09:10:17.908Z,5.40
2023-02-18T09:12:44.563Z,5.63
2023-02-18T09:15:11.441Z,6.63
2023-02-18T09:17:38.149Z,6.70
2023-02-18T09:20:06.096Z,4.73
2023-02-18T09:22:32.894Z,7.60
2023-02-18T09:24:59.778Z,5.23
2023-02-18T09:27:26.504Z,5.43
2023-02-18T09:29:53.246Z,3.77
2023-02-18T09:32:32.608Z,3.60
2023-02-18T09:35:03.140Z,1.77
2023-02-18T09:37:30.042Z,3.57
2023-02-18T09:39:56.850Z,3.57
2023-02-18T09:42:31.195Z,1.73
2023-02-18T09:45:07.230Z,1.03
2023-02-18T09:47:42.668Z,1.73
2023-02-18T09:50:32.472Z,1.20
2023-02-18T09:53:01.273Z,2.93
2023-02-18T09:55:39.309Z,1.80
2023-02-18T09:58:15.898Z,1.20
2023-02-18T10:00:47.405Z,3.30
2023-02-18T10:03:19.158Z,2.17
2023-02-18T10:05:54.942Z,1.10
2023-02-18T10:08:26.553Z,1.43
2023-02-18T10:10:53.274Z,1.07
2023-02-18T10:13:23.802Z,1.70
2023-02-18T10:15:51.695Z,3.63
2023-02-18T10:18:41.580Z,1.93
2023-02-18T10:21:16.431Z,3.33
2023-02-18T10:23:53.544Z,1.63
2023-02-18T10:26:21.296Z,1.37
2023-02-18T10:28:48.398Z,4.87
2023-02-18T10:31:25.711Z,1.37
2023-02-18T10:34:00.445Z,3.03
2023-02-18T10:36:41.966Z,1.70
2023-02-18T10:39:15.560Z,1.00
2023-02-18T10:41:51.401Z,1.00
2023-02-18T10:44:29.677Z,3.37
2023-02-18T10:47:26.738Z,2.23
2023-02-18T10:50:00.951Z,4.57
2023-02-18T10:52:33.024Z,6.97
2023-02-18T10:55:06.400Z,2.33
2023-02-18T10:57:33.592Z,1.63
2023-02-18T11:00:12.215Z,1.77
2023-02-18T11:02:40.009Z,3.00
2023-02-18T11:05:19.140Z,2.53
2023-02-18T11:07:50.216Z,1.90
2023-02-18T11:10:22.534Z,2.00
2023-02-18T11:12:52.147Z,0.70
2023-02-18T11:15:19.005Z,1.23
2023-02-18T11:17:48.989Z,0.83
2023-02-18T11:20:24.820Z,2.50
2023-02-18T11:22:52.046Z,1.33
2023-02-18T11:25:27.302Z,1.90
2023-02-18T11:28:00.447Z,1.50
2023-02-18T11:30:40.495Z,0.90
2023-02-18T11:33:08.703Z,2.37
2023-02-18T11:35:36.298Z,2.67
2023-02-18T11:38:15.448Z,2.10
2023-02-18T11:40:42.162Z,1.57
2023-02-18T11:43:15.867Z,1.43
2023-02-18T11:45:42.917Z,1.60
2023-02-18T11:48:18.647Z,1.30
2023-02-18T11:50:50.160Z,1.13
2023-02-18T11:53:29.979Z,4.53
2023-02-18T11:55:59.798Z,1.50
2023-02-18T11:58:28.052Z,0.87
2023-02-18T12:00:59.003Z,1.40
2023-02-18T12:03:35.326Z,1.10
2023-02-18T12:06:12.096Z,1.70
2023-02-18T12:09:05.788Z,2.73
2023-02-18T12:11:39.225Z,0.93
2023-02-18T12:14:14.224Z,1.33
2023-02-18T12:16:59.225Z,0.80
2023-02-18T12:19:45.899Z,0.67
2023-02-18T12:22:26.924Z,1.30
2023-02-18T12:25:02.701Z,1.17
2023-02-18T12:27:50.416Z,1.27
2023-02-18T12:30:40.247Z,0.73
2023-02-18T12:33:29.444Z,2.90
2023-02-18T12:36:19.488Z,1.60
2023-02-18T12:39:02.319Z,0.80
2023-02-18T12:41:35.032Z,0.97
2023-02-18T12:44:10.738Z,1.33
2023-02-18T12:47:01.177Z,1.00
2023-02-18T12:49:39.579Z,2.33
2023-02-18T12:52:09.041Z,3.37
2023-02-18T12:55:15.279Z,1.10
2023-02-18T12:58:00.202Z,0.90
2023-02-18T13:00:51.951Z,2.53
2023-02-18T13:03:40.280Z,1.60
2023-02-18T13:06:31.153Z,1.60
2023-02-18T13:09:25.597Z,1.13
2023-02-18T13:12:06.213Z,0.87
2023-02-18T13:14:50.079Z,1.70
2023-02-18T13:17:20.041Z,0.90
2023-02-18T13:19:50.650Z,1.33
2023-02-18T13:22:20.903Z,0.90
2023-02-18T13:24:49.600Z,5.23
2023-02-18T13:27:28.476Z,0.77
2023-02-18T13:30:26.572Z,1.60
2023-02-18T13:33:18.047Z,0.70
2023-02-18T13:35:54.932Z,1.10
2023-02-18T13:38:54.379Z,1.03
2023-02-18T13:41:21.741Z,0.70
2023-02-18T13:43:50.187Z,0.90
2023-02-18T13:46:19.873Z,0.53
2023-02-18T13:48:53.125Z,1.27
2023-02-18T13:51:48.804Z,2.50
2023-02-18T13:54:28.241Z,1.17
2023-02-18T13:57:06.944Z,3.00
2023-02-18T13:59:39.941Z,1.27
2023-02-18T14:02:25.348Z,1.10
2023-02-18T14:04:55.737Z,0.90
2023-02-18T14:07:33.443Z,0.93
2023-02-18T14:10:05.393Z,1.30
2023-02-18T14:12:41.397Z,3.27
2023-02-18T14:15:40.533Z,1.40
2023-02-18T14:18:13.416Z,0.90
2023-02-18T14:20:39.987Z,1.37
2023-02-18T14:23:36.094Z,2.27
2023-02-18T14:26:13.784Z,1.00
2023-02-18T14:28:44.883Z,0.93
2023-02-18T14:31:41.601Z,2.03
2023-02-18T14:34:23.629Z,2.83
2023-02-18T14:37:27.937Z,1.20
2023-02-18T14:40:06.772Z,1.10
2023-02-18T14:42:39.472Z,1.20
2023-02-18T14:45:52.313Z,1.03
2023-02-18T14:49:04.375Z,2.23
2023-02-18T14:51:34.092Z,1.40
2023-02-18T14:54:13.813Z,3.40
2023-02-18T14:56:51.409Z,1.87
2023-02-18T14:59:19.950Z,1.10
2023-02-18T15:01:47.861Z,1.30
2023-02-18T15:04:15.821Z,1.23
2023-02-18T15:06:42.677Z,1.10
2023-02-18T15:09:18.216Z,1.60
2023-02-18T15:11:51.132Z,2.40
2023-02-18T15:14:21.532Z,1.57
2023-02-18T15:16:49.596Z,1.73
2023-02-18T15:19:19.572Z,2.20
2023-02-18T15:21:49.146Z,1.03
2023-02-18T15:24:25.774Z,2.80
2023-02-18T15:26:55.828Z,1.60
2023-02-18T15:29:25.539Z,1.37
2023-02-18T15:31:55.331Z,1.20
2023-02-18T15:34:37.715Z,2.17
2023-02-18T15:37:07.541Z,1.20
2023-02-18T15:39:35.312Z,1.47
2023-02-18T15:42:17.133Z,2.63
2023-02-18T15:44:55.263Z,4.87
2023-02-18T15:47:22.998Z,4.13
2023-02-18T15:49:54.228Z,3.17
2023-02-18T15:52:30.821Z,3.93
2023-02-18T15:55:03.705Z,2.70
2023-02-18T15:57:31.131Z,2.57
2023-02-18T16:00:05.610Z,3.13
2023-02-18T16:02:33.375Z,2.40
2023-02-18T16:05:05.081Z,2.90
2023-02-18T16:07:48.820Z,3.07
2023-02-18T16:10:24.906Z,3.27
2023-02-18T16:13:00.386Z,4.73
2023-02-18T16:15:30.682Z,2.93
2023-02-18T16:17:59.175Z,3.10
2023-02-18T16:20:37.954Z,4.40
2023-02-18T16:23:14.849Z,2.80
2023-02-18T16:25:48.741Z,3.10
2023-02-18T16:28:31.544Z,4.20
2023-02-18T16:30:58.958Z,2.90
2023-02-18T16:33:25.757Z,4.50
2023-02-18T16:35:52.615Z,5.63
2023-02-18T16:38:24.501Z,4.77
2023-02-18T16:40:53.470Z,3.43
2023-02-18T16:43:22.821Z,3.40
2023-02-18T16:45:57.693Z,2.33
2023-02-18T16:48:37.348Z,2.13
2023-02-18T16:51:09.678Z,2.37
2023-02-18T16:53:36.565Z,2.40
2023-02-18T16:56:03.513Z,3.70
2023-02-18T16:58:30.271Z,2.30
2023-02-18T17:00:57.673Z,2.47
2023-02-18T17:03:24.363Z,2.20
2023-02-18T17:05:51.115Z,2.00
2023-02-18T17:08:27.472Z,2.40
2023-02-18T17:10:57.447Z,3.10
2023-02-18T17:13:27.502Z,3.13
2023-02-18T17:15:55.946Z,2.63
2023-02-18T17:18:24.016Z,3.03
2023-02-18T17:20:52.995Z,3.73
2023-02-18T17:23:23.150Z,2.57
2023-02-18T17:25:52.024Z,4.50
2023-02-18T17:28:19.420Z,2.80
2023-02-18T17:30:49.508Z,2.10
2023-02-18T17:33:18.622Z,2.73
2023-02-18T17:35:46.077Z,17.20
2023-02-18T17:38:14.693Z,17.23
2023-02-18T17:40:41.530Z,3.27
2023-02-18T17:43:13.764Z,12.30
2023-02-18T17:45:45.532Z,4.83
2023-02-18T17:48:12.224Z,8.90
2023-02-18T17:50:38.861Z,7.93
2023-02-18T17:53:05.549Z,3.20
2023-02-18T17:55:35.487Z,2.87
2023-02-18T17:58:02.305Z,3.13
2023-02-18T18:00:39.198Z,3.17
2023-02-18T18:03:06.253Z,2.63
2023-02-18T18:05:35.973Z,4.60
2023-02-18T18:08:05.212Z,5.37
2023-02-18T18:10:39.058Z,4.43
2023-02-18T18:13:09.779Z,4.13
2023-02-18T18:15:39.630Z,4.70
2023-02-18T18:18:06.818Z,3.87
2023-02-18T18:20:35.255Z,5.17
2023-02-18T18:23:04.799Z,5.00
2023-02-18T18:25:41.405Z,6.40
2023-02-18T18:28:08.886Z,10.50
2023-02-18T18:30:40.911Z,9.07
2023-02-18T18:33:18.251Z,5.93
2023-02-18T18:35:47.585Z,3.80
2023-02-18T18:38:14.669Z,7.70
2023-02-18T18:40:41.650Z,6.17
2023-02-18T18:43:16.912Z,10.47
2023-02-18T18:45:43.729Z,7.93
2023-02-18T18:48:10.380Z,6.00
2023-02-18T18:50:41.909Z,6.17
2023-02-18T18:53:29.946Z,4.93
2023-02-18T18:56:02.759Z,10.43
2023-02-18T18:58:29.603Z,4.37
2023-02-18T19:00:59.164Z,10.90
2023-02-18T19:03:27.938Z,7.23
2023-02-18T19:05:55.428Z,5.50
2023-02-18T19:08:22.429Z,5.10
2023-02-18T19:10:57.047Z,5.50
2023-02-18T19:13:29.957Z,12.80
2023-02-18T19:16:26.489Z,12.83
2023-02-18T19:18:54.213Z,6.03
2023-02-18T19:21:20.976Z,14.30
2023-02-18T19:23:47.846Z,9.67
2023-02-18T19:26:16.610Z,5.13
2023-02-18T19:28:44.503Z,13.57
2023-02-18T19:31:11.799Z,9.67
2023-02-18T19:33:39.651Z,10.67
2023-02-18T19:36:08.873Z,8.83
2023-02-18T19:38:35.674Z,17.50
2023-02-18T19:41:20.801Z,11.30
2023-02-18T19:43:47.608Z,10.77
2023-02-18T19:46:17.091Z,9.67
2023-02-18T19:48:47.148Z,14.33
2023-02-18T19:51:14.585Z,11.13
2023-02-18T19:53:41.271Z,6.33
2023-02-18T19:56:08.125Z,10.20
2023-02-18T19:58:36.197Z,6.63
2023-02-18T20:01:03.502Z,6.90
2023-02-18T20:03:30.204Z,8.50
2023-02-18T20:05:56.841Z,4.10
2023-02-18T20:08:23.533Z,4.20
2023-02-18T20:10:59.594Z,6.63
2023-02-18T20:13:26.923Z,6.00
2023-02-18T20:15:53.696Z,7.63
2023-02-18T20:18:20.412Z,5.17
2023-02-18T20:20:48.948Z,10.47
2023-02-18T20:23:15.948Z,6.33
2023-02-18T20:25:42.670Z,7.77
2023-02-18T20:28:10.255Z,11.43
2023-02-18T20:30:36.956Z,11.90
2023-02-18T20:33:03.972Z,9.47
2023-02-18T20:35:30.656Z,10.60
2023-02-18T20:37:57.336Z,9.47
2023-02-18T20:40:24.370Z,8.23
2023-02-18T20:42:51.025Z,5.77
2023-02-18T20:45:17.822Z,6.37
2023-02-18T20:47:44.604Z,5.93
2023-02-18T20:50:11.303Z,11.07
2023-02-18T20:52:38.155Z,14.67
2023-02-18T20:55:05.022Z,7.27
2023-02-18T20:57:31.694Z,5.43
2023-02-18T20:59:58.466Z,10.60
2023-02-18T21:02:25.629Z,8.80
2023-02-18T21:04:52.286Z,10.20
2023-02-18T21:07:18.996Z,11.57
2023-02-18T21:09:45.649Z,11.47
2023-02-18T21:12:14.521Z,10.97
2023-02-18T21:14:41.289Z,11.03
2023-02-18T21:17:09.534Z,14.03
2023-02-18T21:19:36.423Z,24.07
2023-02-18T21:22:03.107Z,19.00
2023-02-18T21:24:29.863Z,12.07
2023-02-18T21:26:56.608Z,14.03
2023-02-18T21:29:23.333Z,10.90
2023-02-18T21:31:50.113Z,10.10
2023-02-18T21:34:17.534Z,8.60
2023-02-18T21:36:44.307Z,13.17
2023-02-18T21:39:11.714Z,8.60
2023-02-18T21:41:41.014Z,7.53
2023-02-18T21:44:09.109Z,10.10
2023-02-18T21:46:36.878Z,6.00
2023-02-18T21:49:09.839Z,8.07
2023-02-18T21:51:56.751Z,9.30
2023-02-18T21:54:31.102Z,14.87
2023-02-18T21:56:59.259Z,5.97
2023-02-18T21:59:28.858Z,15.83
2023-02-18T22:01:57.401Z,7.43
2023-02-18T22:04:25.405Z,9.90
2023-02-18T22:06:53.863Z,5.63
2023-02-18T22:09:20.583Z,9.53
2023-02-18T22:11:47.284Z,11.63
2023-02-18T22:14:15.186Z,11.50
2023-02-18T22:16:41.980Z,6.20
2023-02-18T22:19:11.034Z,8.60
2023-02-18T22:21:37.746Z,15.90
2023-02-18T22:24:05.396Z,16.17
2023-02-18T22:26:32.218Z,10.03
2023-02-18T22:28:59.790Z,9.67
2023-02-18T22:31:29.123Z,11.70
2023-02-18T22:33:58.954Z,14.57
2023-02-18T22:36:27.689Z,15.93
2023-02-18T22:38:54.692Z,12.03
2023-02-18T22:41:23.389Z,11.07
2023-02-18T22:43:58.575Z,8.50
2023-02-18T22:46:26.505Z,10.53
2023-02-18T22:48:55.376Z,8.30
2023-02-18T22:51:27.639Z,14.33
2023-02-18T22:53:56.372Z,11.23
2023-02-18T22:56:24.788Z,14.47
2023-02-18T22:58:53.398Z,6.43
2023-02-18T23:01:34.831Z,13.70
2023-02-18T23:04:21.181Z,7.07
2023-02-18T23:06:48.805Z,12.13
2023-02-18T23:09:25.432Z,10.97
2023-02-18T23:11:53.874Z,13.80
2023-02-18T23:14:21.825Z,10.10
2023-02-18T23:17:13.262Z,11.83
2023-02-18T23:19:44.419Z,18.80
2023-02-18T23:22:12.956Z,9.53
2023-02-18T23:24:42.549Z,12.83
2023-02-18T23:27:11.670Z,13.43
2023-02-18T23:29:39.023Z,12.97
2023-02-18T23:32:06.586Z,25.10
2023-02-18T23:34:33.548Z,12.57
2023-02-18T23:37:00.436Z,16.00
2023-02-18T23:39:27.301Z,17.77
2023-02-18T23:41:53.973Z,12.77
2023-02-18T23:44:23.374Z,14.00
2023-02-18T23:46:50.440Z,15.57
2023-02-18T23:49:22.680Z,16.17
2023-02-18T23:51:50.958Z,15.40
2023-02-18T23:54:18.252Z,17.93
2023-02-18T23:56:45.081Z,12.90
2023-02-18T23:59:12.478Z,11.60
